Time;durP1;ratioP1;P1;durP2;ratioP2;P2;SDS_P1;SDS_P2;PMS_P1;PMS_P2;Temp;Humidity;BMP_temperature;BMP_pressure;BME280_temperature;BME280_humidity;BME280_pressure;Samples;Min_cycle;Max_cycle;Signal;HPM_P1;HPM_P2
2023/01/24 00:02:21;;;;;;;;;33.25;33.25;;;;;3.24;68.02;102480.81;4974983;28;45226;-76
2023/01/24 00:04:47;;;;;;;;;40.50;38.00;;;;;3.22;68.71;102486.00;4975483;28;45219;-80
2023/01/24 00:07:13;;;;;;;;;38.75;35.00;;;;;3.20;68.29;102482.47;4975441;28;45334;-80
2023/01/24 00:09:38;;;;;;;;;34.25;32.75;;;;;3.19;68.65;102485.91;4973596;28;45403;-79
2023/01/24 00:12:04;;;;;;;;;36.75;34.25;;;;;3.19;69.37;102481.59;4977526;28;45414;-73
2023/01/24 00:14:29;;;;;;;;;31.00;31.00;;;;;3.14;69.07;102472.81;4980815;28;45618;-75
2023/01/24 00:16:54;;;;;;;;;42.50;38.50;;;;;3.17;69.57;102487.59;4976684;28;45232;-80
2023/01/24 00:19:20;;;;;;;;;41.50;37.50;;;;;3.05;69.12;102478.69;4974478;28;61797;-76
2023/01/24 00:21:45;;;;;;;;;38.25;35.25;;;;;3.05;69.33;102472.63;4974593;28;45411;-77
2023/01/24 00:24:11;;;;;;;;;25.75;25.00;;;;;3.14;69.79;102482.31;4980350;28;45434;-77
2023/01/24 00:26:36;;;;;;;;;28.00;26.25;;;;;3.06;69.38;102471.78;4974210;28;45418;-76
2023/01/24 00:29:01;;;;;;;;;32.75;32.75;;;;;3.12;69.61;102477.09;4974183;28;47153;-76
2023/01/24 00:31:26;;;;;;;;;35.75;35.50;;;;;3.18;69.09;102484.13;4974574;28;53754;-78
2023/01/24 00:33:52;;;;;;;;;40.50;37.25;;;;;3.17;69.04;102477.19;4974230;28;52176;-78
2023/01/24 00:36:17;;;;;;;;;44.75;39.25;;;;;3.14;69.26;102477.13;4981951;28;45327;-76
2023/01/24 00:38:42;;;;;;;;;43.50;39.00;;;;;3.12;70.08;102471.91;4983419;28;45279;-77
2023/01/24 00:41:08;;;;;;;;;47.25;42.00;;;;;3.15;68.96;102468.47;4985004;28;45752;-74
2023/01/24 00:43:33;;;;;;;;;47.25;39.75;;;;;3.06;69.72;102464.81;4976657;28;45433;-77
2023/01/24 00:45:59;;;;;;;;;45.75;39.25;;;;;3.06;69.69;102458.75;4975329;28;50536;-78
2023/01/24 00:48:24;;;;;;;;;39.00;36.25;;;;;3.04;69.81;102463.06;4976233;28;45461;-73
2023/01/24 00:50:49;;;;;;;;;41.00;38.00;;;;;3.07;69.67;102465.72;4975467;28;45404;-77
2023/01/24 00:53:15;;;;;;;;;42.00;38.75;;;;;2.88;69.36;102431.53;4974946;28;45385;-78
2023/01/24 00:55:42;;;;;;;;;40.75;38.25;;;;;3.06;70.54;102472.63;4974914;28;45495;-74
2023/01/24 00:58:08;;;;;;;;;35.25;35.25;;;;;3.06;70.38;102472.63;4975613;28;45294;-74
2023/01/24 01:00:34;;;;;;;;;40.75;38.50;;;;;3.02;70.19;102467.34;4976810;28;45383;-75
2023/01/24 01:02:59;;;;;;;;;41.75;38.50;;;;;3.02;70.18;102472.53;4976149;28;45787;-79
2023/01/24 01:05:25;;;;;;;;;42.75;38.00;;;;;2.97;70.28;102459.44;4978724;28;45383;-78
2023/01/24 01:07:50;;;;;;;;;41.75;38.25;;;;;2.99;70.24;102460.34;4983821;28;45289;-77
2023/01/24 01:10:17;;;;;;;;;45.75;39.25;;;;;3.06;69.54;102469.16;4978073;28;45245;-79
2023/01/24 01:12:42;;;;;;;;;41.50;35.25;;;;;2.99;69.53;102462.94;4979776;28;45398;-77
2023/01/24 01:15:08;;;;;;;;;38.75;34.25;;;;;2.97;69.97;102464.63;4988440;28;45692;-77
2023/01/24 01:17:33;;;;;;;;;45.50;38.75;;;;;3.02;69.34;102476.00;4988057;28;45430;-77
2023/01/24 01:19:58;;;;;;;;;30.75;29.00;;;;;2.99;69.62;102470.75;4987941;28;45591;-77
2023/01/24 01:22:24;;;;;;;;;44.25;39.50;;;;;2.92;69.46;102456.75;4986497;28;44795;-74
2023/01/24 01:24:49;;;;;;;;;39.75;36.75;;;;;3.03;69.29;102476.91;4986230;28;45224;-76
2023/01/24 01:27:15;;;;;;;;;47.00;41.75;;;;;3.06;69.99;102493.44;4984797;28;47378;-77
2023/01/24 01:29:40;;;;;;;;;47.00;42.50;;;;;3.05;70.13;102491.69;4987560;28;45449;-74
2023/01/24 01:32:06;;;;;;;;;47.75;41.25;;;;;3.01;70.50;102482.06;4981001;28;45332;-78
2023/01/24 01:34:32;;;;;;;;;44.00;40.50;;;;;2.99;69.58;102475.09;4977349;28;45704;-78
2023/01/24 01:36:58;;;;;;;;;46.75;39.00;;;;;3.04;70.43;102482.13;4975147;28;45377;-75
2023/01/24 01:39:23;;;;;;;;;43.50;38.25;;;;;3.00;70.00;102475.09;4974585;28;45311;-76
2023/01/24 01:41:48;;;;;;;;;39.50;38.00;;;;;2.99;70.35;102469.88;4971320;28;45550;-75
2023/01/24 01:44:47;;;;;;;;;52.00;40.50;;;;;3.10;70.49;102497.00;4974796;28;45542;-76
2023/01/24 01:47:28;;;;;;;;;43.00;39.50;;;;;3.02;69.82;102476.00;4974436;28;47105;-78
2023/01/24 01:50:29;;;;;;;;;48.50;39.25;;;;;3.12;70.52;102497.00;4975165;28;45286;-76
2023/01/24 01:52:56;;;;;;;;;41.00;38.25;;;;;3.12;70.69;102495.31;4997821;28;45724;-79
2023/01/24 01:55:28;;;;;;;;;48.25;41.75;;;;;3.03;70.42;102495.97;4956926;28;45537;-79
2023/01/24 01:57:54;;;;;;;;;43.25;38.00;;;;;3.09;70.48;102489.13;4960778;28;45467;-77
2023/01/24 02:00:23;;;;;;;;;46.00;39.00;;;;;3.10;70.60;102498.69;4966433;28;45251;-76
2023/01/24 02:02:54;;;;;;;;;44.75;40.50;;;;;3.12;71.15;102497.00;4958418;28;45373;-77
2023/01/24 02:05:24;;;;;;;;;44.00;39.25;;;;;3.09;71.25;102489.13;4956188;28;45241;-75
2023/01/24 02:08:01;;;;;;;;;46.25;42.00;;;;;3.10;70.55;102501.31;4956147;28;46264;-76
2023/01/24 02:13:12;;;;;;;;;50.50;40.75;;;;;3.13;70.53;102501.38;4956732;28;45367;-77
2023/01/24 02:18:22;;;;;;;;;33.00;33.00;;;;;3.07;69.82;102497.78;4954352;28;45446;-77
2023/01/24 02:20:48;;;;;;;;;49.50;41.25;;;;;3.07;70.12;102510.78;4955820;28;45446;-74
2023/01/24 02:23:37;;;;;;;;;44.00;41.00;;;;;3.08;70.61;102506.47;4957342;28;45171;-77
2023/01/24 02:26:11;;;;;;;;;44.00;39.50;;;;;3.10;69.88;102514.31;4956007;28;45296;-79
2023/01/24 02:28:37;;;;;;;;;36.75;34.50;;;;;3.06;69.76;102519.44;4955450;28;45305;-78
2023/01/24 02:31:04;;;;;;;;;50.00;41.50;;;;;3.02;70.61;102509.81;4970545;28;45505;-78
2023/01/24 02:33:31;;;;;;;;;50.50;43.25;;;;;2.94;69.82;102500.09;4973610;28;45484;-80
2023/01/24 02:36:10;;;;;;;;;45.75;40.25;;;;;2.89;70.04;102486.97;4974276;28;45642;-77
2023/01/24 02:38:36;;;;;;;;;46.50;41.25;;;;;2.86;69.89;102489.50;4973383;28;46144;-79
2023/01/24 02:41:06;;;;;;;;;44.25;40.00;;;;;2.90;70.42;102494.84;4976253;28;45939;-78
2023/01/24 02:43:37;;;;;;;;;49.75;40.00;;;;;2.92;70.24;102497.44;4979236;28;45389;-76
2023/01/24 02:46:03;;;;;;;;;42.00;38.00;;;;;2.77;69.88;102482.41;4978804;28;45257;-78
2023/01/24 02:48:28;;;;;;;;;45.75;39.75;;;;;2.80;69.67;102498.06;4975398;28;45237;-79
2023/01/24 02:53:39;;;;;;;;;44.00;39.00;;;;;2.73;70.22;102490.97;4978229;28;45161;-77
2023/01/24 02:58:52;;;;;;;;;45.50;38.00;;;;;2.82;69.67;102501.56;4973989;28;45433;-77
2023/01/24 03:01:18;;;;;;;;;41.50;36.75;;;;;2.75;70.78;102492.75;4972533;28;45503;-79
2023/01/24 03:03:45;;;;;;;;;38.25;36.25;;;;;2.69;70.35;102482.22;4974620;28;45272;-79
2023/01/24 03:06:13;;;;;;;;;41.00;35.00;;;;;2.77;70.68;102498.84;4973965;28;45510;-78
2023/01/24 03:08:39;;;;;;;;;46.25;38.75;;;;;2.74;69.94;102503.13;4984977;28;45474;-78
2023/01/24 03:11:05;;;;;;;;;43.25;38.50;;;;;2.69;70.01;102476.16;4972472;28;45438;-76
2023/01/24 03:35:25;;;;;;;;;42.25;38.25;;;;;2.52;70.00;102488.72;4971774;28;45403;-71
2023/01/24 03:40:35;;;;;;;;;40.50;35.75;;;;;2.47;70.63;102492.09;4974571;28;45864;-79
2023/01/24 03:43:01;;;;;;;;;51.00;44.00;;;;;2.47;70.34;102496.41;4978796;28;45165;-78
2023/01/24 03:45:29;;;;;;;;;40.25;38.25;;;;;2.40;70.59;102481.50;4986356;28;44768;-76
2023/01/24 03:48:00;;;;;;;;;43.50;40.00;;;;;2.44;71.31;102492.03;4979208;27;45508;-77
2023/01/24 03:53:13;;;;;;;;;43.75;40.25;;;;;2.47;70.48;102476.50;4974335;28;45414;-78
2023/01/24 03:55:39;;;;;;;;;48.75;42.50;;;;;2.53;70.73;102487.88;4973024;28;45522;-79
2023/01/24 03:58:06;;;;;;;;;41.25;35.75;;;;;2.53;70.53;102487.88;4971501;28;45486;-79
2023/01/24 04:00:32;;;;;;;;;42.00;38.25;;;;;2.51;70.80;102482.63;4971748;28;45488;-79
2023/01/24 04:02:58;;;;;;;;;50.50;42.25;;;;;2.43;71.04;102476.38;4972320;28;45453;-78
2023/01/24 04:05:23;;;;;;;;;54.00;46.00;;;;;2.47;70.99;102486.91;4973496;28;45458;-79
2023/01/24 04:07:49;;;;;;;;;50.00;42.25;;;;;2.42;71.67;102485.03;4976458;28;45362;-77
2023/01/24 04:10:16;;;;;;;;;46.00;41.50;;;;;2.37;70.46;102484.03;4975817;28;45288;-78
2023/01/24 04:12:43;;;;;;;;;48.75;41.50;;;;;2.27;71.07;102470.81;4974211;28;45382;-78
2023/01/24 04:15:14;;;;;;;;;47.00;40.50;;;;;2.54;71.56;102494.84;5046281;28;45236;-75
2023/01/24 04:17:39;;;;;;;;;52.25;43.25;;;;;2.61;71.41;102501.94;5079096;27;45326;-80
2023/01/24 04:20:05;;;;;;;;;42.75;39.50;;;;;2.57;70.69;102503.56;5077839;27;61386;-77
2023/01/24 04:22:30;;;;;;;;;39.25;37.50;;;;;2.52;70.38;102494.78;5079247;27;45256;-77
2023/01/24 04:24:55;;;;;;;;;50.25;42.25;;;;;2.40;71.30;102471.13;5080594;27;45328;-79
2023/01/24 04:27:21;;;;;;;;;41.00;38.75;;;;;2.46;70.56;102485.16;5082354;27;45240;-77
2023/01/24 04:29:46;;;;;;;;;55.00;43.25;;;;;2.46;71.06;102492.03;5079398;28;52242;-76
2023/01/24 04:32:11;;;;;;;;;42.25;38.00;;;;;2.41;71.19;102476.38;5082330;27;45356;-74
2023/01/24 04:34:37;;;;;;;;;43.75;37.25;;;;;2.43;70.79;102487.66;5079868;27;45375;-77
2023/01/24 04:37:02;;;;;;;;;47.25;42.00;;;;;2.43;71.46;102498.06;5078272;27;45330;-75
2023/01/24 04:39:27;;;;;;;;;37.25;36.00;;;;;2.32;71.53;102463.16;5079051;27;45366;-78
2023/01/24 04:41:53;;;;;;;;;47.25;42.00;;;;;2.41;71.58;102497.16;5076861;28;45340;-72
2023/01/24 04:44:18;;;;;;;;;42.25;38.25;;;;;2.41;71.65;102504.03;5076904;27;45773;-75
2023/01/24 04:46:43;;;;;;;;;48.00;40.25;;;;;2.37;71.90;102502.22;5053798;28;45577;-77
2023/01/24 04:49:09;;;;;;;;;43.00;39.00;;;;;2.39;71.39;102506.63;4972938;28;47984;-76
2023/01/24 04:51:34;;;;;;;;;47.00;40.75;;;;;2.42;71.66;102493.72;4974520;28;45428;-77
2023/01/24 04:53:59;;;;;;;;;52.75;43.75;;;;;2.48;71.60;102498.16;4974885;28;45390;-75
2023/01/24 04:56:25;;;;;;;;;46.00;40.50;;;;;2.27;70.80;102460.44;4975422;28;45420;-76
2023/01/24 04:58:50;;;;;;;;;54.50;43.25;;;;;2.59;71.87;102503.63;4973313;28;46554;-79
2023/01/24 05:01:15;;;;;;;;;47.00;42.50;;;;;2.58;71.40;102507.94;4975117;28;45394;-79
2023/01/24 05:03:41;;;;;;;;;29.25;28.25;;;;;2.54;71.12;102506.09;4975199;28;45335;-78
2023/01/24 05:06:06;;;;;;;;;55.00;44.00;;;;;2.56;70.92;102521.75;4975330;28;45359;-75
2023/01/24 05:08:31;;;;;;;;;42.25;37.75;;;;;2.55;71.54;102522.59;4974699;28;45428;-77
2023/01/24 05:11:03;;;;;;;;;46.00;40.25;;;;;2.48;71.67;102522.44;4975106;28;46215;-79
2023/01/24 05:13:29;;;;;;;;;46.50;41.00;;;;;2.49;71.60;102525.88;4976243;28;45473;-80
2023/01/24 05:15:54;;;;;;;;;46.75;40.50;;;;;2.41;72.07;102502.34;4974705;28;45416;-79
2023/01/24 05:18:20;;;;;;;;;44.50;39.75;;;;;2.42;71.64;102505.78;4974887;28;45487;-77
2023/01/24 05:20:45;;;;;;;;;48.00;42.00;;;;;2.54;72.31;102526.88;4977877;28;50310;-78
2023/01/24 05:23:10;;;;;;;;;47.50;40.25;;;;;2.53;71.48;102527.72;4974277;28;45463;-76
2023/01/24 05:25:36;;;;;;;;;45.75;40.50;;;;;2.45;71.25;102524.06;4974234;28;45410;-77
2023/01/24 05:28:01;;;;;;;;;35.75;35.00;;;;;2.45;71.87;102527.56;4979722;28;45306;-75
2023/01/24 05:30:27;;;;;;;;;40.75;38.50;;;;;2.45;72.33;102524.94;4980239;28;45326;-74
2023/01/24 05:32:58;;;;;;;;;43.50;40.00;;;;;2.39;72.28;102532.59;4975079;28;45401;-75
2023/01/24 05:35:24;;;;;;;;;40.00;37.75;;;;;2.39;72.08;102531.69;4973291;28;45639;-79
2023/01/24 05:37:50;;;;;;;;;42.50;39.50;;;;;2.23;71.96;102510.53;4972606;28;48149;-78
2023/01/24 05:40:16;;;;;;;;;46.50;41.00;;;;;2.32;71.75;102534.13;4973985;28;45283;-78
2023/01/24 05:42:42;;;;;;;;;42.50;39.00;;;;;2.27;72.10;102529.69;4974227;28;45421;-76
2023/01/24 05:45:08;;;;;;;;;38.75;34.25;;;;;2.31;72.22;102536.72;4974457;28;45415;-72
2023/01/24 05:47:33;;;;;;;;;41.00;38.75;;;;;2.27;72.60;102540.06;4972864;28;45989;-77
2023/01/24 05:49:59;;;;;;;;;37.75;35.00;;;;;2.25;71.92;102533.97;4974030;28;45456;-77
2023/01/24 05:52:24;;;;;;;;;37.50;35.50;;;;;2.21;72.01;102537.31;4974372;28;45364;-78
2023/01/24 05:54:50;;;;;;;;;45.50;39.25;;;;;2.12;72.25;102519.75;4973919;28;45523;-79
2023/01/24 05:57:16;;;;;;;;;45.50;41.00;;;;;2.17;72.45;102521.66;4989693;28;45476;-77
2023/01/24 05:59:42;;;;;;;;;35.75;33.00;;;;;2.30;73.18;102545.34;4975015;28;45832;-78
2023/01/24 06:02:07;;;;;;;;;50.00;40.00;;;;;2.29;72.22;102535.78;4974848;28;45391;-82
2023/01/24 06:04:33;;;;;;;;;45.00;40.25;;;;;2.18;73.16;102531.22;4974985;28;45344;-80
2023/01/24 06:06:58;;;;;;;;;32.25;31.00;;;;;2.24;72.27;102533.06;4973132;28;45473;-79
2023/01/24 06:09:23;;;;;;;;;49.75;43.75;;;;;2.21;72.55;102534.72;4973893;28;45246;-76
2023/01/24 06:11:49;;;;;;;;;51.00;42.25;;;;;2.26;72.35;102533.97;4973803;28;45601;-79
2023/01/24 06:14:14;;;;;;;;;45.00;41.25;;;;;2.26;73.02;102536.59;4975688;28;45422;-79
2023/01/24 06:16:39;;;;;;;;;42.25;39.00;;;;;2.27;72.16;102540.94;4974055;28;45440;-78
2023/01/24 06:19:05;;;;;;;;;45.25;41.25;;;;;2.29;72.30;102543.59;4974291;28;45364;-76
2023/01/24 06:21:57;;;;;;;;;52.75;44.00;;;;;2.30;73.05;102547.94;4974189;28;45401;-77
2023/01/24 06:24:26;;;;;;;;;44.00;39.00;;;;;2.23;72.21;102543.44;4973852;28;45346;-76
2023/01/24 06:26:52;;;;;;;;;48.25;41.25;;;;;2.29;72.64;102552.25;4974217;28;45481;-79
2023/01/24 06:29:19;;;;;;;;;54.75;42.25;;;;;2.22;73.14;102529.56;4971941;28;45336;-79
2023/01/24 06:32:00;;;;;;;;;44.75;39.75;;;;;2.32;73.33;102554.06;4972978;28;45355;-80
2023/01/24 06:34:41;;;;;;;;;46.50;41.50;;;;;2.36;72.65;102544.59;4973416;28;45396;-78
2023/01/24 06:37:26;;;;;;;;;52.25;43.50;;;;;2.32;72.81;102541.06;4973678;28;45676;-73
2023/01/24 06:39:53;;;;;;;;;52.00;43.00;;;;;2.41;72.88;102553.41;4972382;28;45371;-80
2023/01/24 06:42:19;;;;;;;;;50.75;43.00;;;;;2.39;72.22;102542.09;4974064;28;45321;-80
2023/01/24 06:44:45;;;;;;;;;56.00;45.25;;;;;2.39;72.49;102539.50;4975143;28;45567;-82
2023/01/24 06:47:11;;;;;;;;;39.25;37.25;;;;;2.34;72.81;102544.59;4979203;28;45469;-82
2023/01/24 06:49:37;;;;;;;;;60.50;44.50;;;;;2.36;72.84;102552.41;4977690;28;45514;-78
2023/01/24 06:52:03;;;;;;;;;50.75;43.75;;;;;2.27;73.11;102538.34;4983768;27;45300;-78
2023/01/24 06:54:28;;;;;;;;;51.50;42.50;;;;;2.38;72.30;102558.50;4984353;28;45359;-78
2023/01/24 06:56:53;;;;;;;;;55.00;46.25;;;;;2.35;72.35;102556.72;4977130;28;50856;-74
2023/01/24 06:59:22;;;;;;;;;57.75;47.75;;;;;2.45;73.25;102570.81;4978575;28;45282;-74
2023/01/24 07:01:51;;;;;;;;;49.25;42.50;;;;;2.45;72.86;102565.63;4977512;28;45236;-75
2023/01/24 07:04:16;;;;;;;;;47.00;42.75;;;;;2.39;73.03;102555.06;4974691;28;45399;-77
2023/01/24 07:06:42;;;;;;;;;57.25;48.25;;;;;2.48;73.10;102566.59;4971222;28;45877;-73
2023/01/24 07:09:07;;;;;;;;;52.00;45.50;;;;;2.47;72.20;102567.44;4974066;28;45496;-76
2023/01/24 07:11:33;;;;;;;;;51.50;43.00;;;;;2.55;72.52;102579.75;4975504;28;45404;-74
2023/01/24 07:13:58;;;;;;;;;53.75;45.00;;;;;2.41;72.11;102562.09;4979157;28;45449;-73
2023/01/24 07:16:23;;;;;;;;;59.00;48.00;;;;;2.53;73.48;102576.22;4976761;28;46088;-80
2023/01/24 07:18:49;;;;;;;;;59.25;48.50;;;;;2.48;72.21;102570.91;4975159;28;45346;-80
2023/01/24 07:21:15;;;;;;;;;52.00;43.75;;;;;2.50;72.29;102578.75;4973626;28;45310;-77
2023/01/24 07:23:47;;;;;;;;;56.75;43.25;;;;;2.48;72.78;102576.09;4966308;28;45462;-77
2023/01/24 07:26:14;;;;;;;;;51.25;43.25;;;;;2.48;73.21;102578.69;4961539;28;47814;-79
2023/01/24 07:28:40;;;;;;;;;54.25;43.75;;;;;2.46;73.50;102580.38;4953961;28;45244;-75
2023/01/24 07:31:07;;;;;;;;;50.25;43.50;;;;;2.47;72.65;102587.31;4953785;28;45433;-78
2023/01/24 07:33:33;;;;;;;;;40.00;35.50;;;;;2.51;73.41;102588.28;4993040;28;45509;-76
2023/01/24 07:35:58;;;;;;;;;51.00;44.75;;;;;2.39;72.64;102568.06;4984972;28;47431;-82
2023/01/24 07:38:24;;;;;;;;;55.50;43.00;;;;;2.50;73.18;102599.53;4970420;28;45581;-79
2023/01/24 07:40:49;;;;;;;;;53.75;44.50;;;;;2.46;73.53;102586.47;4972712;28;45529;-76
2023/01/24 07:43:14;;;;;;;;;60.25;47.00;;;;;2.51;73.70;102596.94;4979655;28;45643;-74
2023/01/24 07:45:40;;;;;;;;;50.75;41.50;;;;;2.46;72.93;102590.75;4973664;28;46121;-77
2023/01/24 07:48:07;;;;;;;;;51.75;44.75;;;;;2.46;72.77;102596.84;4972303;28;45561;-75
2023/01/24 07:50:33;;;;;;;;;50.50;43.25;;;;;2.48;73.67;102599.47;4973573;28;45620;-73
2023/01/24 07:52:59;;;;;;;;;54.75;47.00;;;;;2.45;73.49;102608.09;4974092;28;45564;-68
2023/01/24 07:55:25;;;;;;;;;42.25;39.50;;;;;2.34;73.78;102592.19;4972923;28;46050;-75
2023/01/24 07:57:51;;;;;;;;;57.00;46.00;;;;;2.46;73.79;102611.53;4973823;28;45426;-75
2023/01/24 08:00:17;;;;;;;;;49.00;42.50;;;;;2.48;73.04;102608.16;4974606;28;45374;-74
2023/01/24 08:02:44;;;;;;;;;54.50;44.25;;;;;2.54;72.86;102610.03;4974577;28;45541;-73
2023/01/24 08:05:09;;;;;;;;;47.25;41.50;;;;;2.54;73.92;102614.34;4975099;28;47835;-71
2023/01/24 08:07:35;;;;;;;;;57.25;47.75;;;;;2.58;73.33;102623.97;4973188;28;45466;-74
2023/01/24 08:10:01;;;;;;;;;51.00;43.00;;;;;2.57;73.33;102624.81;4975208;28;45293;-73
2023/01/24 08:12:26;;;;;;;;;59.25;46.75;;;;;2.52;73.50;102623.81;4975245;28;45548;-72
2023/01/24 08:14:51;;;;;;;;;54.25;44.00;;;;;2.51;73.39;102625.53;4974538;28;45427;-71
2023/01/24 08:17:17;;;;;;;;;58.50;48.00;;;;;2.55;73.00;102626.50;4975016;28;45309;-73
2023/01/24 08:19:43;;;;;;;;;50.50;43.50;;;;;2.58;73.92;102624.84;4975334;28;45402;-72
2023/01/24 08:22:08;;;;;;;;;54.75;45.25;;;;;2.54;72.84;102625.59;4975663;28;45337;-74
2023/01/24 08:24:34;;;;;;;;;59.25;48.00;;;;;2.56;73.73;102628.25;4974891;28;45464;-74
2023/01/24 08:27:00;;;;;;;;;57.00;47.50;;;;;2.55;73.86;102622.16;4973752;28;45365;-72
2023/01/24 08:29:26;;;;;;;;;54.25;46.75;;;;;2.56;73.38;102623.06;4974693;28;45433;-70
2023/01/24 08:31:52;;;;;;;;;60.75;49.25;;;;;2.60;73.76;102624.91;4975144;28;45625;-72
2023/01/24 08:34:17;;;;;;;;;44.50;38.50;;;;;2.59;73.27;102623.16;4974378;28;45960;-71
2023/01/24 08:36:42;;;;;;;;;54.50;46.00;;;;;2.53;73.31;102613.47;4974214;28;45478;-75
2023/01/24 08:39:08;;;;;;;;;57.50;47.75;;;;;2.62;73.36;102631.88;4977119;28;45360;-73
2023/01/24 08:41:33;;;;;;;;;53.75;45.50;;;;;2.60;73.59;102638.75;4975899;28;45254;-74
2023/01/24 08:43:58;;;;;;;;;60.25;48.75;;;;;2.60;73.35;102632.69;4976125;28;46138;-74
2023/01/24 08:46:25;;;;;;;;;55.75;46.00;;;;;2.63;73.51;102640.56;4976086;28;45177;-73
2023/01/24 08:48:50;;;;;;;;;54.25;46.75;;;;;2.70;73.49;102649.41;4976175;28;45509;-74
2023/01/24 08:51:15;;;;;;;;;60.25;50.00;;;;;2.74;73.48;102656.47;4976269;28;45455;-73
2023/01/24 08:53:41;;;;;;;;;51.25;43.00;;;;;2.74;73.42;102654.72;4975563;28;48268;-74
2023/01/24 08:56:09;;;;;;;;;60.50;48.00;;;;;2.71;72.78;102648.59;4976871;28;45338;-72
2023/01/24 08:58:34;;;;;;;;;54.00;46.00;;;;;2.76;73.62;102659.97;4977156;28;45401;-74
2023/01/24 09:01:04;;;;;;;;;56.75;47.25;;;;;2.70;73.49;102658.09;4976930;28;45520;-73
2023/01/24 09:03:30;;;;;;;;;57.75;48.75;;;;;2.69;73.33;102658.91;4976608;28;46194;-74
2023/01/24 09:05:57;;;;;;;;;55.75;46.50;;;;;2.69;73.54;102645.06;4977801;28;48378;-73
2023/01/24 09:08:23;;;;;;;;;57.50;44.75;;;;;2.84;73.76;102660.16;4976095;28;45361;-73
2023/01/24 09:10:48;;;;;;;;;56.25;47.25;;;;;2.86;72.64;102658.47;4974673;28;45459;-73
2023/01/24 09:13:14;;;;;;;;;61.00;50.00;;;;;2.89;72.96;102666.34;4974759;28;45854;-71
2023/01/24 09:15:39;;;;;;;;;55.75;44.50;;;;;2.84;73.38;102654.94;4976275;27;45259;-75
2023/01/24 09:18:05;;;;;;;;;50.25;42.75;;;;;2.87;72.55;102668.94;4975642;28;45313;-72
2023/01/24 09:20:30;;;;;;;;;50.25;43.00;;;;;2.86;73.02;102672.38;4976101;28;45595;-72
2023/01/24 09:22:56;;;;;;;;;59.75;49.00;;;;;2.87;73.73;102668.94;4975058;28;45518;-72
2023/01/24 09:25:22;;;;;;;;;58.50;48.00;;;;;2.88;72.44;102672.38;4976039;28;45194;-74
2023/01/24 09:27:55;;;;;;;;;56.25;47.75;;;;;2.87;72.49;102666.31;4974554;27;45397;-74
2023/01/24 09:30:21;;;;;;;;;58.75;48.75;;;;;2.90;72.60;102670.72;4976293;28;45224;-73
2023/01/24 09:32:47;;;;;;;;;57.25;45.75;;;;;2.69;73.23;102624.28;4975366;28;45444;-74
2023/01/24 09:35:12;;;;;;;;;51.00;42.25;;;;;2.88;73.46;102660.28;4975260;28;45353;-71
2023/01/24 09:37:39;;;;;;;;;59.50;48.00;;;;;2.95;73.43;102663.03;4972715;28;45770;-72
2023/01/24 09:40:08;;;;;;;;;47.50;40.75;;;;;2.97;73.57;102666.56;4974564;28;45342;-72
2023/01/24 09:42:58;;;;;;;;;55.50;46.25;;;;;2.69;73.11;102613.88;4976234;28;46126;-74
2023/01/24 09:45:35;;;;;;;;;58.50;46.75;;;;;2.99;71.97;102668.34;4977087;28;45268;-71
2023/01/24 09:48:05;;;;;;;;;52.75;44.50;;;;;2.99;72.76;102683.06;4979819;28;45268;-73
2023/01/24 09:50:48;;;;;;;;;81.67;67.33;;;;;2.98;73.50;102679.56;4979843;28;45252;-73
2023/01/24 09:53:21;;;;;;;;;58.00;49.50;;;;;3.01;73.07;102684.84;4979160;28;45310;-71
2023/01/24 09:55:47;;;;;;;;;63.00;51.25;;;;;3.04;73.13;102673.66;4981392;27;45422;-74
2023/01/24 09:58:39;;;;;;;;;73.75;56.00;;;;;3.17;73.63;102680.94;4994907;28;45417;-73
2023/01/24 10:01:11;;;;;;;;;74.00;58.25;;;;;3.26;73.07;102684.59;4976668;28;45397;-71
2023/01/24 10:03:38;;;;;;;;;56.75;47.75;;;;;3.30;72.16;102679.53;4974583;28;45998;-72
2023/01/24 10:06:14;;;;;;;;;57.25;47.50;;;;;3.28;72.06;102689.00;4973588;28;45366;-71
2023/01/24 10:09:00;;;;;;;;;65.50;53.50;;;;;3.28;73.33;102689.00;4974224;28;45358;-72
2023/01/24 10:11:46;;;;;;;;;61.25;50.25;;;;;3.32;72.36;102696.03;5004716;28;45347;-70
2023/01/24 10:14:32;;;;;;;;;58.50;49.00;;;;;3.35;72.76;102696.13;4975210;28;45454;-70
2023/01/24 10:17:10;;;;;;;;;59.50;47.75;;;;;3.41;72.32;102697.97;4989804;27;45424;-70
2023/01/24 10:20:14;;;;;;;;;64.00;52.25;;;;;3.44;73.02;102691.97;4974658;28;45205;-74
2023/01/24 10:23:01;;;;;;;;;57.25;48.50;;;;;3.52;72.26;102687.81;4974489;28;45275;-73
2023/01/24 10:25:38;;;;;;;;;50.00;41.00;;;;;3.59;72.98;102687.13;4973150;28;46037;-73
2023/01/24 10:28:04;;;;;;;;;37.00;35.75;;;;;3.63;72.42;102690.66;4976706;27;45256;-71
2023/01/24 10:30:47;;;;;;;;;54.50;45.00;;;;;3.61;72.06;102688.03;4990693;27;45282;-71
2023/01/24 10:33:18;;;;;;;;;52.00;42.50;;;;;3.54;71.66;102683.53;4972880;28;45369;-72
2023/01/24 10:35:54;;;;;;;;;57.75;48.75;;;;;3.54;72.44;102686.13;4974804;28;45431;-72
2023/01/24 10:38:19;;;;;;;;;53.00;43.25;;;;;3.53;72.76;102673.06;4975317;28;45425;-74
2023/01/24 10:41:15;;;;;;;;;49.50;41.25;;;;;3.62;72.18;102686.28;4976651;28;45720;-72
2023/01/24 10:43:47;;;;;;;;;52.25;44.00;;;;;3.58;72.57;102679.25;4973642;28;45320;-73
2023/01/24 10:46:42;;;;;;;;;60.50;48.50;;;;;3.64;71.83;102685.50;4974250;28;45390;-72
2023/01/24 10:49:17;;;;;;;;;44.50;40.00;;;;;3.63;72.32;102681.13;4974954;28;45378;-73
2023/01/24 10:51:42;;;;;;;;;58.50;47.75;;;;;3.64;71.57;102679.41;4972498;28;45420;-73
2023/01/24 10:54:21;;;;;;;;;53.50;44.50;;;;;3.63;71.93;102677.63;4973631;28;45338;-72
2023/01/24 10:56:46;;;;;;;;;58.00;48.25;;;;;3.59;71.85;102662.81;4973496;28;46998;-72
2023/01/24 10:59:14;;;;;;;;;50.75;43.25;;;;;3.59;71.71;102663.69;4973588;28;45304;-74
2023/01/24 11:01:44;;;;;;;;;55.50;45.75;;;;;3.63;72.00;102665.53;4974108;28;45263;-72
2023/01/24 11:04:21;;;;;;;;;75.75;61.50;;;;;3.68;71.93;102668.22;4973396;28;45225;-72
2023/01/24 11:06:49;;;;;;;;;59.25;47.25;;;;;3.73;72.09;102664.00;4973212;28;45354;-73
2023/01/24 11:09:19;;;;;;;;;60.00;50.75;;;;;3.80;71.33;102662.41;4973253;28;45409;-73
2023/01/24 11:11:49;;;;;;;;;54.25;45.75;;;;;3.79;71.57;102658.03;4973578;28;45347;-71
2023/01/24 11:14:35;;;;;;;;;55.25;45.75;;;;;3.70;71.66;102663.91;4975522;28;45573;-71
2023/01/24 11:17:01;;;;;;;;;54.50;46.75;;;;;3.72;71.68;102663.97;4974030;28;45373;-73
2023/01/24 11:19:30;;;;;;;;;52.25;45.00;;;;;3.74;71.66;102662.28;4972252;28;45344;-73
2023/01/24 11:21:58;;;;;;;;;55.00;45.50;;;;;3.75;71.22;102651.91;4972598;28;45417;-71
2023/01/24 11:24:25;;;;;;;;;56.25;46.00;;;;;3.69;71.58;102637.88;4973151;27;45324;-73
2023/01/24 11:27:04;;;;;;;;;55.00;45.00;;;;;3.79;71.61;102642.44;4974394;28;47163;-74
2023/01/24 11:29:32;;;;;;;;;54.25;45.00;;;;;3.85;72.04;102649.50;4973442;28;45608;-73
2023/01/24 11:32:19;;;;;;;;;40.00;34.50;;;;;3.86;71.97;102640.84;4972894;28;45261;-72
2023/01/24 11:35:11;;;;;;;;;40.25;37.00;;;;;3.87;71.70;102637.41;4972475;28;45378;-74
2023/01/24 11:38:11;;;;;;;;;50.75;43.75;;;;;3.85;71.14;102639.94;4980344;28;46185;-73
2023/01/24 11:40:57;;;;;;;;;55.75;45.75;;;;;3.81;71.20;102627.72;4973453;28;45311;-73
2023/01/24 11:43:41;;;;;;;;;53.50;45.75;;;;;3.77;71.77;102636.31;4973568;28;45335;-74
2023/01/24 11:46:06;;;;;;;;;53.50;42.75;;;;;3.80;71.65;102641.56;4974014;28;45310;-73
2023/01/24 11:48:56;;;;;;;;;50.00;43.50;;;;;3.82;71.64;102639.88;4988840;28;46994;-74
2023/01/24 11:51:36;;;;;;;;;55.50;47.00;;;;;3.85;71.94;102631.28;4973129;28;45290;-73
2023/01/24 11:54:04;;;;;;;;;61.25;49.25;;;;;3.91;71.68;102624.44;4972936;28;45346;-72
2023/01/24 11:56:39;;;;;;;;;71.75;56.25;;;;;3.97;71.68;102628.03;4975167;28;45130;-74
2023/01/24 11:59:26;;;;;;;;;60.50;51.00;;;;;4.01;71.32;102627.25;4989992;28;46107;-74
2023/01/24 12:02:03;;;;;;;;;69.75;55.50;;;;;4.08;71.40;102623.91;4973366;28;45346;-73
2023/01/24 12:04:47;;;;;;;;;47.25;41.75;;;;;4.10;71.15;102619.59;4973829;28;45250;-76